HUAL Seoul — LADO6 — position and weather

sailwx.info

Track history (hours):
 
Tides and Currents Weather Stations Pressure Air Temp Water Temp Dewpoint Dewpoint Depression Visibility Wind Speed Wind Dir Waves Ship Positions

HUAL Seoul

Last reported at 2018-Feb-12 16:08 UTC. Time now 2018-Feb-21 07:47 UTC.
Position N 35°34' E 014°44'.
Warning: this ship's position is 8 days out of date.

Type: Cargo ship. MMSI: 257496000.

Date/timePositionNaut miles runAvg speedWind from/ knotsBaromVisibWave heightAir tempDewpointWater temp
2018-Feb-12 16:08N 35°34' E 014°44'315.8
2018-Feb-12 15:59N 35°34' E 014°41'816.3
2018-Feb-12 15:30N 35°35' E 014°32'817.1
2018-Feb-12 15:00N 35°37' E 014°21'917.1
2018-Feb-12 14:29N 35°41' E 014°12'917.7
2018-Feb-12 13:59N 35°47' E 014°03'917.9
2018-Feb-12 13:30N 35°52' E 013°54'917.5
2018-Feb-12 12:59N 35°57' E 013°45'  
2018-Feb-10 02:29N 36°01' W 005°12'817.6
2018-Feb-10 02:01N 35°58' W 005°21'  
2018-Feb-06 19:00N 39°39' W 027°25'1016.0
2018-Feb-06 18:24N 39°40' W 027°37'716.4
2018-Feb-06 18:00N 39°41' W 027°46'816.0
2018-Feb-06 17:30N 39°42' W 027°56'1616.2
2018-Feb-06 16:30N 39°44' W 028°17'816.4
2018-Feb-06 16:00N 39°45' W 028°28'816.9
2018-Feb-06 15:30N 39°46' W 028°39'1616.3
2018-Feb-06 14:30N 39°48' W 028°60'816.4
2018-Feb-06 14:00N 39°49' W 029°10'1716.6
2018-Feb-06 13:00N 39°52' W 029°32'816.3
2018-Feb-06 12:30N 39°53' W 029°42'916.0
2018-Feb-06 11:58N 39°54' W 029°54'  
Track history (hours):
 
Tides and Currents Weather Stations Pressure Air Temp Water Temp Dewpoint Dewpoint Depression Visibility Wind Speed Wind Dir Waves Ship Positions

HUAL Seoul

Last reported at 2018-Feb-12 16:08 UTC. Time now 2018-Feb-21 07:47 UTC.
Position N 35°34' E 014°44'.
Warning: this ship's position is 8 days out of date.

Type: Cargo ship. MMSI: 257496000.

Date/timePositionNaut miles runAvg speedWind from/ knotsBaromVisibWave heightAir tempDewpointWater temp
2018-Feb-12 16:08N 35°34' E 014°44'315.8
2018-Feb-12 15:59N 35°34' E 014°41'816.3
2018-Feb-12 15:30N 35°35' E 014°32'817.1
2018-Feb-12 15:00N 35°37' E 014°21'917.1
2018-Feb-12 14:29N 35°41' E 014°12'917.7
2018-Feb-12 13:59N 35°47' E 014°03'917.9
2018-Feb-12 13:30N 35°52' E 013°54'917.5
2018-Feb-12 12:59N 35°57' E 013°45'  
2018-Feb-10 02:29N 36°01' W 005°12'817.6
2018-Feb-10 02:01N 35°58' W 005°21'  
2018-Feb-06 19:00N 39°39' W 027°25'1016.0
2018-Feb-06 18:24N 39°40' W 027°37'716.4
2018-Feb-06 18:00N 39°41' W 027°46'816.0
2018-Feb-06 17:30N 39°42' W 027°56'1616.2
2018-Feb-06 16:30N 39°44' W 028°17'816.4
2018-Feb-06 16:00N 39°45' W 028°28'816.9
2018-Feb-06 15:30N 39°46' W 028°39'1616.3
2018-Feb-06 14:30N 39°48' W 028°60'816.4
2018-Feb-06 14:00N 39°49' W 029°10'1716.6
2018-Feb-06 13:00N 39°52' W 029°32'816.3
2018-Feb-06 12:30N 39°53' W 029°42'916.0
2018-Feb-06 11:58N 39°54' W 029°54'  

Dump ship's entire track history